sensor_id;sensor_type;location;lat;lon;timestamp;P1;durP1;ratioP1;P2;durP2;ratioP2
11183;SDS011;5648;43.628;22.684;2022-09-02T00:00:56;14.02;;;12.52;;
11183;SDS011;5648;43.628;22.684;2022-09-02T00:03:27;13.95;;;12.65;;
11183;SDS011;5648;43.628;22.684;2022-09-02T00:05:58;13.57;;;12.32;;
11183;SDS011;5648;43.628;22.684;2022-09-02T00:08:25;16.10;;;14.40;;
11183;SDS011;5648;43.628;22.684;2022-09-02T00:10:52;16.02;;;14.43;;
11183;SDS011;5648;43.628;22.684;2022-09-02T00:13:18;16.65;;;14.82;;
11183;SDS011;5648;43.628;22.684;2022-09-02T00:15:46;15.75;;;14.05;;
11183;SDS011;5648;43.628;22.684;2022-09-02T00:18:12;15.77;;;14.18;;
11183;SDS011;5648;43.628;22.684;2022-09-02T00:20:40;14.95;;;13.45;;
11183;SDS011;5648;43.628;22.684;2022-09-02T00:23:07;16.20;;;14.15;;
11183;SDS011;5648;43.628;22.684;2022-09-02T00:25:34;15.10;;;13.50;;
11183;SDS011;5648;43.628;22.684;2022-09-02T00:28:01;14.70;;;12.93;;
11183;SDS011;5648;43.628;22.684;2022-09-02T00:30:27;16.65;;;14.85;;
11183;SDS011;5648;43.628;22.684;2022-09-02T00:32:53;14.57;;;13.07;;
11183;SDS011;5648;43.628;22.684;2022-09-02T00:35:19;15.80;;;14.05;;
11183;SDS011;5648;43.628;22.684;2022-09-02T00:37:45;15.85;;;12.65;;
11183;SDS011;5648;43.628;22.684;2022-09-02T00:40:11;14.43;;;12.90;;
11183;SDS011;5648;43.628;22.684;2022-09-02T00:42:37;17.45;;;13.10;;
11183;SDS011;5648;43.628;22.684;2022-09-02T00:45:04;15.35;;;13.57;;
11183;SDS011;5648;43.628;22.684;2022-09-02T00:47:31;18.90;;;13.90;;
11183;SDS011;5648;43.628;22.684;2022-09-02T00:49:57;15.02;;;13.32;;
11183;SDS011;5648;43.628;22.684;2022-09-02T00:52:27;15.55;;;13.27;;
11183;SDS011;5648;43.628;22.684;2022-09-02T00:54:57;15.05;;;13.50;;
11183;SDS011;5648;43.628;22.684;2022-09-02T00:57:31;17.95;;;13.80;;
11183;SDS011;5648;43.628;22.684;2022-09-02T01:02:37;14.18;;;12.75;;
11183;SDS011;5648;43.628;22.684;2022-09-02T01:05:05;13.70;;;12.40;;
11183;SDS011;5648;43.628;22.684;2022-09-02T01:07:33;12.20;;;10.95;;
11183;SDS011;5648;43.628;22.684;2022-09-02T01:10:02;15.30;;;11.85;;
11183;SDS011;5648;43.628;22.684;2022-09-02T01:12:30;11.93;;;10.75;;
11183;SDS011;5648;43.628;22.684;2022-09-02T01:14:56;11.35;;;10.25;;
11183;SDS011;5648;43.628;22.684;2022-09-02T01:17:22;12.25;;;10.82;;
11183;SDS011;5648;43.628;22.684;2022-09-02T01:19:50;11.30;;;9.85;;
11183;SDS011;5648;43.628;22.684;2022-09-02T01:22:22;10.73;;;9.73;;
11183;SDS011;5648;43.628;22.684;2022-09-02T01:24:50;11.55;;;9.93;;
11183;SDS011;5648;43.628;22.684;2022-09-02T01:27:18;10.25;;;9.15;;
11183;SDS011;5648;43.628;22.684;2022-09-02T01:29:50;10.68;;;9.50;;
11183;SDS011;5648;43.628;22.684;2022-09-02T01:32:17;12.50;;;9.80;;
11183;SDS011;5648;43.628;22.684;2022-09-02T01:34:43;10.55;;;9.45;;
11183;SDS011;5648;43.628;22.684;2022-09-02T01:37:08;13.02;;;9.23;;
11183;SDS011;5648;43.628;22.684;2022-09-02T01:39:34;11.90;;;8.95;;
11183;SDS011;5648;43.628;22.684;2022-09-02T01:42:00;10.25;;;9.20;;
11183;SDS011;5648;43.628;22.684;2022-09-02T01:44:26;10.10;;;9.10;;
11183;SDS011;5648;43.628;22.684;2022-09-02T01:46:52;9.45;;;8.05;;
11183;SDS011;5648;43.628;22.684;2022-09-02T01:49:19;15.13;;;9.70;;
11183;SDS011;5648;43.628;22.684;2022-09-02T01:51:44;12.18;;;9.40;;
11183;SDS011;5648;43.628;22.684;2022-09-02T01:54:10;10.73;;;9.68;;
11183;SDS011;5648;43.628;22.684;2022-09-02T01:56:36;14.35;;;8.85;;
11183;SDS011;5648;43.628;22.684;2022-09-02T01:59:02;10.43;;;9.35;;
11183;SDS011;5648;43.628;22.684;2022-09-02T02:01:31;9.55;;;8.68;;
11183;SDS011;5648;43.628;22.684;2022-09-02T02:03:58;10.90;;;8.43;;
11183;SDS011;5648;43.628;22.684;2022-09-02T02:06:23;8.32;;;7.53;;
11183;SDS011;5648;43.628;22.684;2022-09-02T02:08:49;7.57;;;6.88;;
11183;SDS011;5648;43.628;22.684;2022-09-02T02:11:19;7.25;;;6.55;;
11183;SDS011;5648;43.628;22.684;2022-09-02T02:13:46;8.85;;;6.05;;
11183;SDS011;5648;43.628;22.684;2022-09-02T02:16:12;6.47;;;5.88;;
11183;SDS011;5648;43.628;22.684;2022-09-02T02:18:38;6.22;;;5.63;;
11183;SDS011;5648;43.628;22.684;2022-09-02T02:21:03;6.72;;;6.13;;
11183;SDS011;5648;43.628;22.684;2022-09-02T02:23:29;6.40;;;5.80;;
11183;SDS011;5648;43.628;22.684;2022-09-02T02:25:54;6.05;;;5.45;;
11183;SDS011;5648;43.628;22.684;2022-09-02T02:28:20;5.45;;;4.93;;
11183;SDS011;5648;43.628;22.684;2022-09-02T02:30:45;5.38;;;4.88;;
11183;SDS011;5648;43.628;22.684;2022-09-02T02:33:11;4.68;;;4.28;;
11183;SDS011;5648;43.628;22.684;2022-09-02T02:35:37;6.22;;;4.82;;
11183;SDS011;5648;43.628;22.684;2022-09-02T02:38:03;4.38;;;3.97;;
11183;SDS011;5648;43.628;22.684;2022-09-02T02:40:29;6.55;;;4.95;;
11183;SDS011;5648;43.628;22.684;2022-09-02T02:42:54;5.65;;;4.93;;
11183;SDS011;5648;43.628;22.684;2022-09-02T02:45:20;9.90;;;5.20;;
11183;SDS011;5648;43.628;22.684;2022-09-02T02:47:46;5.95;;;4.05;;
11183;SDS011;5648;43.628;22.684;2022-09-02T02:50:14;4.95;;;4.20;;
11183;SDS011;5648;43.628;22.684;2022-09-02T02:52:42;4.38;;;4.03;;
11183;SDS011;5648;43.628;22.684;2022-09-02T02:55:08;6.28;;;3.85;;
11183;SDS011;5648;43.628;22.684;2022-09-02T02:57:35;7.22;;;4.53;;
11183;SDS011;5648;43.628;22.684;2022-09-02T03:00:07;8.32;;;4.70;;
11183;SDS011;5648;43.628;22.684;2022-09-02T03:02:35;6.20;;;4.50;;
11183;SDS011;5648;43.628;22.684;2022-09-02T03:05:02;10.15;;;4.80;;
11183;SDS011;5648;43.628;22.684;2022-09-02T03:07:29;5.63;;;4.47;;
11183;SDS011;5648;43.628;22.684;2022-09-02T03:09:55;9.15;;;4.63;;
11183;SDS011;5648;43.628;22.684;2022-09-02T03:12:20;8.52;;;4.50;;
11183;SDS011;5648;43.628;22.684;2022-09-02T03:14:46;6.30;;;4.50;;
11183;SDS011;5648;43.628;22.684;2022-09-02T03:17:11;6.38;;;4.88;;
11183;SDS011;5648;43.628;22.684;2022-09-02T03:19:37;5.93;;;4.60;;
11183;SDS011;5648;43.628;22.684;2022-09-02T03:22:03;9.15;;;4.55;;
11183;SDS011;5648;43.628;22.684;2022-09-02T03:24:29;7.97;;;4.60;;
11183;SDS011;5648;43.628;22.684;2022-09-02T03:26:54;5.82;;;4.53;;
11183;SDS011;5648;43.628;22.684;2022-09-02T03:29:20;7.15;;;3.70;;
11183;SDS011;5648;43.628;22.684;2022-09-02T03:31:45;3.95;;;3.65;;
11183;SDS011;5648;43.628;22.684;2022-09-02T03:34:11;4.22;;;3.90;;
11183;SDS011;5648;43.628;22.684;2022-09-02T03:36:37;3.45;;;3.20;;
11183;SDS011;5648;43.628;22.684;2022-09-02T03:39:05;3.40;;;3.10;;
11183;SDS011;5648;43.628;22.684;2022-09-02T03:41:32;5.22;;;3.70;;
11183;SDS011;5648;43.628;22.684;2022-09-02T03:43:58;3.80;;;3.47;;
11183;SDS011;5648;43.628;22.684;2022-09-02T03:46:24;4.25;;;3.40;;
11183;SDS011;5648;43.628;22.684;2022-09-02T03:48:50;5.65;;;3.97;;
11183;SDS011;5648;43.628;22.684;2022-09-02T03:51:16;3.83;;;3.53;;
11183;SDS011;5648;43.628;22.684;2022-09-02T03:53:43;4.65;;;3.83;;
11183;SDS011;5648;43.628;22.684;2022-09-02T03:56:10;4.93;;;4.53;;
11183;SDS011;5648;43.628;22.684;2022-09-02T03:58:38;6.13;;;5.05;;
11183;SDS011;5648;43.628;22.684;2022-09-02T04:01:04;4.93;;;4.53;;
11183;SDS011;5648;43.628;22.684;2022-09-02T04:03:29;8.00;;;5.80;;
11183;SDS011;5648;43.628;22.684;2022-09-02T04:05:55;6.05;;;5.53;;
11183;SDS011;5648;43.628;22.684;2022-09-02T04:08:21;5.90;;;5.40;;
11183;SDS011;5648;43.628;22.684;2022-09-02T04:10:48;6.63;;;6.00;;
11183;SDS011;5648;43.628;22.684;2022-09-02T04:13:14;5.68;;;5.18;;
11183;SDS011;5648;43.628;22.684;2022-09-02T04:15:40;5.63;;;5.13;;
11183;SDS011;5648;43.628;22.684;2022-09-02T04:18:09;5.80;;;5.30;;
11183;SDS011;5648;43.628;22.684;2022-09-02T04:20:39;9.10;;;6.50;;
11183;SDS011;5648;43.628;22.684;2022-09-02T04:23:06;6.88;;;6.15;;
11183;SDS011;5648;43.628;22.684;2022-09-02T04:25:32;10.95;;;7.10;;
11183;SDS011;5648;43.628;22.684;2022-09-02T04:27:58;7.80;;;7.13;;
11183;SDS011;5648;43.628;22.684;2022-09-02T04:30:24;7.85;;;7.15;;
11183;SDS011;5648;43.628;22.684;2022-09-02T04:32:51;12.75;;;8.93;;
11183;SDS011;5648;43.628;22.684;2022-09-02T04:35:17;304.27;;;20.75;;
11183;SDS011;5648;43.628;22.684;2022-09-02T04:37:43;209.60;;;16.75;;
11183;SDS011;5648;43.628;22.684;2022-09-02T04:40:11;31.80;;;10.30;;
11183;SDS011;5648;43.628;22.684;2022-09-02T04:42:36;8.98;;;8.07;;
11183;SDS011;5648;43.628;22.684;2022-09-02T04:45:02;11.05;;;9.10;;
11183;SDS011;5648;43.628;22.684;2022-09-02T04:47:28;9.48;;;8.57;;
11183;SDS011;5648;43.628;22.684;2022-09-02T04:49:54;9.98;;;8.57;;
11183;SDS011;5648;43.628;22.684;2022-09-02T04:52:20;8.95;;;8.05;;
11183;SDS011;5648;43.628;22.684;2022-09-02T04:54:45;9.13;;;8.18;;
11183;SDS011;5648;43.628;22.684;2022-09-02T04:57:11;9.70;;;8.85;;
11183;SDS011;5648;43.628;22.684;2022-09-02T04:59:37;9.40;;;8.40;;
11183;SDS011;5648;43.628;22.684;2022-09-02T05:02:03;23.17;;;10.15;;
11183;SDS011;5648;43.628;22.684;2022-09-02T05:04:28;17.75;;;10.45;;
11183;SDS011;5648;43.628;22.684;2022-09-02T05:06:55;12.20;;;8.88;;
11183;SDS011;5648;43.628;22.684;2022-09-02T05:09:26;11.23;;;9.52;;
11183;SDS011;5648;43.628;22.684;2022-09-02T05:11:52;8.82;;;7.93;;
11183;SDS011;5648;43.628;22.684;2022-09-02T05:14:22;9.32;;;7.45;;
11183;SDS011;5648;43.628;22.684;2022-09-02T05:16:48;9.73;;;8.40;;
11183;SDS011;5648;43.628;22.684;2022-09-02T05:19:18;8.35;;;7.65;;
11183;SDS011;5648;43.628;22.684;2022-09-02T05:21:45;7.80;;;7.10;;
11183;SDS011;5648;43.628;22.684;2022-09-02T05:24:11;8.80;;;7.95;;
11183;SDS011;5648;43.628;22.684;2022-09-02T05:26:37;8.52;;;7.72;;
11183;SDS011;5648;43.628;22.684;2022-09-02T05:29:03;10.30;;;9.27;;
11183;SDS011;5648;43.628;22.684;2022-09-02T05:31:31;9.70;;;8.73;;
11183;SDS011;5648;43.628;22.684;2022-09-02T05:33:56;13.23;;;9.23;;
11183;SDS011;5648;43.628;22.684;2022-09-02T05:36:22;13.13;;;10.48;;
11183;SDS011;5648;43.628;22.684;2022-09-02T05:38:48;19.95;;;11.27;;
11183;SDS011;5648;43.628;22.684;2022-09-02T05:41:15;12.05;;;10.85;;
11183;SDS011;5648;43.628;22.684;2022-09-02T05:43:43;28.23;;;11.00;;
11183;SDS011;5648;43.628;22.684;2022-09-02T05:46:11;54.33;;;11.70;;
11183;SDS011;5648;43.628;22.684;2022-09-02T05:48:41;49.25;;;12.15;;
11183;SDS011;5648;43.628;22.684;2022-09-02T05:51:26;64.65;;;12.50;;
11183;SDS011;5648;43.628;22.684;2022-09-02T05:53:55;68.32;;;12.85;;
11183;SDS011;5648;43.628;22.684;2022-09-02T05:56:22;10.43;;;9.32;;
11183;SDS011;5648;43.628;22.684;2022-09-02T05:58:48;11.70;;;9.98;;
11183;SDS011;5648;43.628;22.684;2022-09-02T06:01:15;14.93;;;10.30;;
11183;SDS011;5648;43.628;22.684;2022-09-02T06:03:42;16.45;;;11.40;;
11183;SDS011;5648;43.628;22.684;2022-09-02T06:06:08;15.50;;;10.50;;
11183;SDS011;5648;43.628;22.684;2022-09-02T06:08:34;23.77;;;10.27;;
11183;SDS011;5648;43.628;22.684;2022-09-02T06:11:00;28.33;;;12.27;;
11183;SDS011;5648;43.628;22.684;2022-09-02T06:13:27;15.85;;;11.10;;
11183;SDS011;5648;43.628;22.684;2022-09-02T06:15:53;14.55;;;11.55;;
11183;SDS011;5648;43.628;22.684;2022-09-02T06:18:20;15.65;;;11.00;;
11183;SDS011;5648;43.628;22.684;2022-09-02T06:20:46;29.90;;;10.77;;
11183;SDS011;5648;43.628;22.684;2022-09-02T06:23:12;20.38;;;9.82;;
11183;SDS011;5648;43.628;22.684;2022-09-02T06:25:39;23.77;;;10.27;;
11183;SDS011;5648;43.628;22.684;2022-09-02T06:28:06;12.57;;;9.45;;
11183;SDS011;5648;43.628;22.684;2022-09-02T06:30:32;9.70;;;8.77;;
11183;SDS011;5648;43.628;22.684;2022-09-02T06:32:58;13.02;;;9.38;;
11183;SDS011;5648;43.628;22.684;2022-09-02T06:35:27;9.95;;;7.45;;
11183;SDS011;5648;43.628;22.684;2022-09-02T06:37:53;7.82;;;6.53;;
11183;SDS011;5648;43.628;22.684;2022-09-02T06:40:18;5.72;;;5.22;;
11183;SDS011;5648;43.628;22.684;2022-09-02T06:42:44;4.35;;;3.95;;
11183;SDS011;5648;43.628;22.684;2022-09-02T06:45:09;5.38;;;4.35;;
11183;SDS011;5648;43.628;22.684;2022-09-02T06:47:35;4.40;;;4.00;;
11183;SDS011;5648;43.628;22.684;2022-09-02T06:50:00;4.32;;;3.92;;
11183;SDS011;5648;43.628;22.684;2022-09-02T06:52:26;7.03;;;4.43;;
11183;SDS011;5648;43.628;22.684;2022-09-02T06:54:52;4.60;;;3.83;;
11183;SDS011;5648;43.628;22.684;2022-09-02T06:57:22;3.33;;;3.00;;
11183;SDS011;5648;43.628;22.684;2022-09-02T06:59:48;3.92;;;3.63;;
11183;SDS011;5648;43.628;22.684;2022-09-02T07:02:13;3.90;;;3.58;;
11183;SDS011;5648;43.628;22.684;2022-09-02T07:04:39;4.20;;;3.90;;
11183;SDS011;5648;43.628;22.684;2022-09-02T07:07:24;4.03;;;3.72;;
11183;SDS011;5648;43.628;22.684;2022-09-02T07:09:49;4.25;;;3.95;;
11183;SDS011;5648;43.628;22.684;2022-09-02T07:12:15;4.05;;;3.70;;
11183;SDS011;5648;43.628;22.684;2022-09-02T07:14:43;3.67;;;3.38;;
11183;SDS011;5648;43.628;22.684;2022-09-02T07:17:10;4.88;;;3.70;;
11183;SDS011;5648;43.628;22.684;2022-09-02T07:19:41;3.40;;;3.20;;
11183;SDS011;5648;43.628;22.684;2022-09-02T07:22:07;3.75;;;3.45;;
11183;SDS011;5648;43.628;22.684;2022-09-02T07:24:34;3.55;;;3.25;;
11183;SDS011;5648;43.628;22.684;2022-09-02T07:27:01;3.80;;;3.50;;
11183;SDS011;5648;43.628;22.684;2022-09-02T07:29:27;2.92;;;2.63;;
11183;SDS011;5648;43.628;22.684;2022-09-02T07:31:52;3.55;;;2.95;;
11183;SDS011;5648;43.628;22.684;2022-09-02T07:34:18;3.35;;;2.97;;
11183;SDS011;5648;43.628;22.684;2022-09-02T07:36:44;3.22;;;2.92;;
11183;SDS011;5648;43.628;22.684;2022-09-02T07:39:10;2.60;;;2.40;;
11183;SDS011;5648;43.628;22.684;2022-09-02T07:41:38;2.42;;;2.25;;
11183;SDS011;5648;43.628;22.684;2022-09-02T07:44:05;29.10;;;6.93;;
11183;SDS011;5648;43.628;22.684;2022-09-02T07:46:31;77.88;;;9.60;;
11183;SDS011;5648;43.628;22.684;2022-09-02T07:48:58;45.58;;;10.77;;
11183;SDS011;5648;43.628;22.684;2022-09-02T07:51:25;19.35;;;9.82;;
11183;SDS011;5648;43.628;22.684;2022-09-02T07:53:51;18.45;;;9.77;;
11183;SDS011;5648;43.628;22.684;2022-09-02T07:56:17;18.98;;;10.40;;
11183;SDS011;5648;43.628;22.684;2022-09-02T07:58:44;55.33;;;9.93;;
11183;SDS011;5648;43.628;22.684;2022-09-02T08:01:10;127.28;;;15.55;;
11183;SDS011;5648;43.628;22.684;2022-09-02T08:03:38;147.02;;;14.55;;
11183;SDS011;5648;43.628;22.684;2022-09-02T08:06:05;20.60;;;9.93;;
11183;SDS011;5648;43.628;22.684;2022-09-02T08:08:31;116.18;;;12.77;;
11183;SDS011;5648;43.628;22.684;2022-09-02T08:10:57;35.10;;;11.50;;
11183;SDS011;5648;43.628;22.684;2022-09-02T08:13:23;14.13;;;11.35;;
11183;SDS011;5648;43.628;22.684;2022-09-02T08:15:49;11.35;;;10.23;;
11183;SDS011;5648;43.628;22.684;2022-09-02T08:18:15;20.48;;;11.10;;
11183;SDS011;5648;43.628;22.684;2022-09-02T08:20:40;11.70;;;9.57;;
11183;SDS011;5648;43.628;22.684;2022-09-02T08:23:06;10.27;;;9.05;;
11183;SDS011;5648;43.628;22.684;2022-09-02T08:25:32;11.65;;;10.48;;
11183;SDS011;5648;43.628;22.684;2022-09-02T08:27:58;13.02;;;11.73;;
11183;SDS011;5648;43.628;22.684;2022-09-02T08:30:24;20.55;;;12.32;;
11183;SDS011;5648;43.628;22.684;2022-09-02T08:32:50;16.90;;;12.55;;
11183;SDS011;5648;43.628;22.684;2022-09-02T08:35:16;14.40;;;12.90;;
11183;SDS011;5648;43.628;22.684;2022-09-02T08:37:42;13.93;;;12.57;;
11183;SDS011;5648;43.628;22.684;2022-09-02T08:40:12;15.77;;;14.27;;
11183;SDS011;5648;43.628;22.684;2022-09-02T08:42:45;17.08;;;15.20;;
11183;SDS011;5648;43.628;22.684;2022-09-02T08:50:44;11.15;;;9.73;;
11183;SDS011;5648;43.628;22.684;2022-09-02T08:55:56;8.95;;;8.05;;
11183;SDS011;5648;43.628;22.684;2022-09-02T08:58:24;9.15;;;8.13;;
11183;SDS011;5648;43.628;22.684;2022-09-02T09:01:15;8.10;;;7.32;;
11183;SDS011;5648;43.628;22.684;2022-09-02T09:07:09;9.60;;;8.30;;
11183;SDS011;5648;43.628;22.684;2022-09-02T09:20:10;5.80;;;5.30;;
11183;SDS011;5648;43.628;22.684;2022-09-02T09:22:43;4.88;;;4.53;;
11183;SDS011;5648;43.628;22.684;2022-09-02T09:25:13;5.10;;;4.70;;
11183;SDS011;5648;43.628;22.684;2022-09-02T09:27:40;6.40;;;5.80;;
11183;SDS011;5648;43.628;22.684;2022-09-02T09:30:07;6.53;;;5.63;;
11183;SDS011;5648;43.628;22.684;2022-09-02T09:32:41;7.75;;;5.78;;
11183;SDS011;5648;43.628;22.684;2022-09-02T09:35:11;6.85;;;6.10;;
11183;SDS011;5648;43.628;22.684;2022-09-02T09:37:39;8.25;;;7.55;;
11183;SDS011;5648;43.628;22.684;2022-09-02T09:40:26;8.10;;;7.40;;
11183;SDS011;5648;43.628;22.684;2022-09-02T09:45:32;10.27;;;9.27;;
11183;SDS011;5648;43.628;22.684;2022-09-02T09:50:33;9.98;;;9.00;;
11183;SDS011;5648;43.628;22.684;2022-09-02T09:53:17;9.63;;;8.48;;
11183;SDS011;5648;43.628;22.684;2022-09-02T09:56:27;9.57;;;8.68;;
11183;SDS011;5648;43.628;22.684;2022-09-02T09:58:45;9.80;;;8.90;;
11183;SDS011;5648;43.628;22.684;2022-09-02T10:04:08;7.85;;;7.15;;
11183;SDS011;5648;43.628;22.684;2022-09-02T10:06:41;7.90;;;7.13;;
11183;SDS011;5648;43.628;22.684;2022-09-02T10:11:39;8.77;;;7.97;;
11183;SDS011;5648;43.628;22.684;2022-09-02T10:14:21;11.32;;;7.85;;
11183;SDS011;5648;43.628;22.684;2022-09-02T10:19:43;9.63;;;8.38;;
11183;SDS011;5648;43.628;22.684;2022-09-02T10:25:11;6.82;;;6.25;;
11183;SDS011;5648;43.628;22.684;2022-09-02T10:30:28;7.38;;;6.22;;
11183;SDS011;5648;43.628;22.684;2022-09-02T10:33:06;8.43;;;6.90;;
11183;SDS011;5648;43.628;22.684;2022-09-02T10:38:52;11.43;;;10.25;;
11183;SDS011;5648;43.628;22.684;2022-09-02T10:41:37;9.90;;;7.55;;
11183;SDS011;5648;43.628;22.684;2022-09-02T10:46:48;7.63;;;3.30;;
11183;SDS011;5648;43.628;22.684;2022-09-02T10:55:02;92.03;;;9.05;;
11183;SDS011;5648;43.628;22.684;2022-09-02T10:57:44;47.75;;;4.03;;
11183;SDS011;5648;43.628;22.684;2022-09-02T11:00:14;104.53;;;6.50;;
11183;SDS011;5648;43.628;22.684;2022-09-02T11:02:52;2.83;;;2.63;;
11183;SDS011;5648;43.628;22.684;2022-09-02T11:05:45;34.67;;;3.45;;
11183;SDS011;5648;43.628;22.684;2022-09-02T11:22:27;7.75;;;1.80;;
11183;SDS011;5648;43.628;22.684;2022-09-02T11:27:58;21.65;;;19.35;;
11183;SDS011;5648;43.628;22.684;2022-09-02T11:30:48;0.85;;;0.80;;
11183;SDS011;5648;43.628;22.684;2022-09-02T11:33:21;8.98;;;8.07;;
11183;SDS011;5648;43.628;22.684;2022-09-02T11:35:53;0.70;;;0.70;;
11183;SDS011;5648;43.628;22.684;2022-09-02T11:55:16;1.20;;;1.20;;
11183;SDS011;5648;43.628;22.684;2022-09-02T11:57:55;0.90;;;0.90;;
11183;SDS011;5648;43.628;22.684;2022-09-02T12:00:25;0.90;;;0.90;;
11183;SDS011;5648;43.628;22.684;2022-09-02T12:02:58;1.95;;;0.80;;
11183;SDS011;5648;43.628;22.684;2022-09-02T12:08:00;1.08;;;1.08;;
11183;SDS011;5648;43.628;22.684;2022-09-02T12:13:06;1.33;;;1.30;;
11183;SDS011;5648;43.628;22.684;2022-09-02T12:15:33;7.82;;;4.25;;
11183;SDS011;5648;43.628;22.684;2022-09-02T12:18:09;3.45;;;2.65;;
11183;SDS011;5648;43.628;22.684;2022-09-02T12:23:06;10.80;;;2.63;;
11183;SDS011;5648;43.628;22.684;2022-09-02T12:25:34;127.00;;;8.57;;
11183;SDS011;5648;43.628;22.684;2022-09-02T12:28:14;67.05;;;10.18;;
11183;SDS011;5648;43.628;22.684;2022-09-02T12:33:40;1.70;;;1.60;;
11183;SDS011;5648;43.628;22.684;2022-09-02T12:36:08;1.80;;;1.70;;
11183;SDS011;5648;43.628;22.684;2022-09-02T12:39:05;1.77;;;1.60;;
11183;SDS011;5648;43.628;22.684;2022-09-02T12:41:47;2.80;;;2.60;;
11183;SDS011;5648;43.628;22.684;2022-09-02T12:44:28;1.50;;;1.40;;
11183;SDS011;5648;43.628;22.684;2022-09-02T12:49:52;3.80;;;1.92;;
11183;SDS011;5648;43.628;22.684;2022-09-02T12:55:22;3.38;;;3.10;;
11183;SDS011;5648;43.628;22.684;2022-09-02T12:58:09;4.18;;;3.72;;
11183;SDS011;5648;43.628;22.684;2022-09-02T13:03:22;2.15;;;2.05;;
11183;SDS011;5648;43.628;22.684;2022-09-02T13:12:02;43.40;;;5.25;;
11183;SDS011;5648;43.628;22.684;2022-09-02T13:17:46;34.20;;;4.07;;
11183;SDS011;5648;43.628;22.684;2022-09-02T13:23:06;341.73;;;22.65;;
11183;SDS011;5648;43.628;22.684;2022-09-02T13:25:57;318.02;;;19.98;;
11183;SDS011;5648;43.628;22.684;2022-09-02T13:31:28;451.00;;;31.83;;
11183;SDS011;5648;43.628;22.684;2022-09-02T13:34:04;519.17;;;32.53;;
11183;SDS011;5648;43.628;22.684;2022-09-02T13:36:44;338.00;;;21.13;;
11183;SDS011;5648;43.628;22.684;2022-09-02T13:41:48;280.38;;;19.38;;
11183;SDS011;5648;43.628;22.684;2022-09-02T13:44:21;319.92;;;20.42;;
11183;SDS011;5648;43.628;22.684;2022-09-02T13:46:52;312.13;;;22.65;;
11183;SDS011;5648;43.628;22.684;2022-09-02T13:49:39;355.40;;;26.27;;
11183;SDS011;5648;43.628;22.684;2022-09-02T13:52:06;348.20;;;25.60;;
11183;SDS011;5648;43.628;22.684;2022-09-02T13:54:38;487.85;;;37.85;;
11183;SDS011;5648;43.628;22.684;2022-09-02T13:57:10;370.52;;;24.23;;
11183;SDS011;5648;43.628;22.684;2022-09-02T13:59:49;630.00;;;40.75;;
11183;SDS011;5648;43.628;22.684;2022-09-02T14:02:26;594.03;;;40.63;;
11183;SDS011;5648;43.628;22.684;2022-09-02T14:04:57;628.90;;;45.63;;
11183;SDS011;5648;43.628;22.684;2022-09-02T14:07:36;594.55;;;44.58;;
11183;SDS011;5648;43.628;22.684;2022-09-02T14:10:06;566.17;;;38.78;;
11183;SDS011;5648;43.628;22.684;2022-09-02T14:12:36;446.83;;;29.55;;
11183;SDS011;5648;43.628;22.684;2022-09-02T14:15:05;384.42;;;26.02;;
11183;SDS011;5648;43.628;22.684;2022-09-02T14:17:32;387.83;;;25.58;;
11183;SDS011;5648;43.628;22.684;2022-09-02T14:20:16;477.33;;;32.83;;
11183;SDS011;5648;43.628;22.684;2022-09-02T14:22:55;431.67;;;33.85;;
11183;SDS011;5648;43.628;22.684;2022-09-02T14:25:23;460.23;;;34.75;;
11183;SDS011;5648;43.628;22.684;2022-09-02T14:27:54;600.95;;;38.55;;
11183;SDS011;5648;43.628;22.684;2022-09-02T14:30:34;302.50;;;26.70;;
11183;SDS011;5648;43.628;22.684;2022-09-02T14:33:17;551.20;;;41.15;;
11183;SDS011;5648;43.628;22.684;2022-09-02T14:35:59;481.88;;;32.40;;
11183;SDS011;5648;43.628;22.684;2022-09-02T14:38:28;481.25;;;34.78;;
11183;SDS011;5648;43.628;22.684;2022-09-02T14:40:58;520.70;;;64.28;;
11183;SDS011;5648;43.628;22.684;2022-09-02T14:43:25;563.95;;;44.10;;
11183;SDS011;5648;43.628;22.684;2022-09-02T14:45:53;712.05;;;49.80;;
11183;SDS011;5648;43.628;22.684;2022-09-02T14:48:30;662.55;;;69.82;;
11183;SDS011;5648;43.628;22.684;2022-09-02T14:51:04;550.85;;;40.17;;
11183;SDS011;5648;43.628;22.684;2022-09-02T14:53:31;482.80;;;37.00;;
11183;SDS011;5648;43.628;22.684;2022-09-02T14:55:58;768.60;;;55.42;;
11183;SDS011;5648;43.628;22.684;2022-09-02T14:58:25;689.17;;;47.65;;
11183;SDS011;5648;43.628;22.684;2022-09-02T15:00:52;343.02;;;39.42;;
11183;SDS011;5648;43.628;22.684;2022-09-02T15:03:23;568.50;;;40.17;;
11183;SDS011;5648;43.628;22.684;2022-09-02T15:05:48;605.08;;;48.10;;
11183;SDS011;5648;43.628;22.684;2022-09-02T15:08:14;648.28;;;43.25;;
11183;SDS011;5648;43.628;22.684;2022-09-02T15:10:40;411.08;;;25.80;;
11183;SDS011;5648;43.628;22.684;2022-09-02T15:13:09;246.88;;;24.15;;
11183;SDS011;5648;43.628;22.684;2022-09-02T15:15:37;754.13;;;47.90;;
11183;SDS011;5648;43.628;22.684;2022-09-02T15:18:03;368.83;;;28.27;;
11183;SDS011;5648;43.628;22.684;2022-09-02T15:20:30;379.75;;;31.35;;
11183;SDS011;5648;43.628;22.684;2022-09-02T15:22:56;389.95;;;31.35;;
11183;SDS011;5648;43.628;22.684;2022-09-02T15:25:21;260.80;;;22.98;;
11183;SDS011;5648;43.628;22.684;2022-09-02T15:27:47;529.42;;;39.03;;
11183;SDS011;5648;43.628;22.684;2022-09-02T15:30:13;190.18;;;17.55;;
11183;SDS011;5648;43.628;22.684;2022-09-02T15:32:39;263.65;;;22.23;;
11183;SDS011;5648;43.628;22.684;2022-09-02T15:35:05;160.43;;;16.42;;
11183;SDS011;5648;43.628;22.684;2022-09-02T15:37:32;266.02;;;22.75;;
11183;SDS011;5648;43.628;22.684;2022-09-02T15:40:02;221.95;;;19.33;;
11183;SDS011;5648;43.628;22.684;2022-09-02T15:42:32;415.80;;;30.63;;
11183;SDS011;5648;43.628;22.684;2022-09-02T15:44:59;977.67;;;63.33;;
11183;SDS011;5648;43.628;22.684;2022-09-02T15:47:26;541.17;;;36.47;;
11183;SDS011;5648;43.628;22.684;2022-09-02T15:49:54;473.73;;;39.65;;
11183;SDS011;5648;43.628;22.684;2022-09-02T15:52:22;388.02;;;30.42;;
11183;SDS011;5648;43.628;22.684;2022-09-02T15:54:47;328.50;;;24.02;;
11183;SDS011;5648;43.628;22.684;2022-09-02T15:57:13;73.15;;;11.35;;
11183;SDS011;5648;43.628;22.684;2022-09-02T15:59:39;30.48;;;9.77;;
11183;SDS011;5648;43.628;22.684;2022-09-02T16:02:05;290.67;;;21.90;;
11183;SDS011;5648;43.628;22.684;2022-09-02T16:04:30;186.57;;;16.98;;
11183;SDS011;5648;43.628;22.684;2022-09-02T16:06:56;292.77;;;21.58;;
11183;SDS011;5648;43.628;22.684;2022-09-02T16:09:21;368.58;;;25.52;;
11183;SDS011;5648;43.628;22.684;2022-09-02T16:11:48;649.65;;;48.38;;
11183;SDS011;5648;43.628;22.684;2022-09-02T16:14:15;175.63;;;16.50;;
11183;SDS011;5648;43.628;22.684;2022-09-02T16:16:42;241.45;;;21.75;;
11183;SDS011;5648;43.628;22.684;2022-09-02T16:19:09;253.65;;;22.77;;
11183;SDS011;5648;43.628;22.684;2022-09-02T16:21:35;178.43;;;21.30;;
11183;SDS011;5648;43.628;22.684;2022-09-02T16:24:08;177.50;;;18.73;;
11183;SDS011;5648;43.628;22.684;2022-09-02T16:26:34;606.63;;;47.10;;
11183;SDS011;5648;43.628;22.684;2022-09-02T16:29:08;276.48;;;24.90;;
11183;SDS011;5648;43.628;22.684;2022-09-02T16:31:38;184.45;;;18.38;;
11183;SDS011;5648;43.628;22.684;2022-09-02T16:34:12;85.60;;;13.60;;
11183;SDS011;5648;43.628;22.684;2022-09-02T16:36:43;109.07;;;15.32;;
11183;SDS011;5648;43.628;22.684;2022-09-02T16:39:10;396.58;;;31.52;;
11183;SDS011;5648;43.628;22.684;2022-09-02T16:41:38;46.20;;;14.50;;
11183;SDS011;5648;43.628;22.684;2022-09-02T16:44:39;170.23;;;18.35;;
11183;SDS011;5648;43.628;22.684;2022-09-02T16:46:58;123.10;;;15.40;;